Time;durP1;ratioP1;P1;durP2;ratioP2;P2;SDS_P1;SDS_P2;PMS_P1;PMS_P2;Temp;Humidity;BMP_temperature;BMP_pressure;BME280_temperature;BME280_humidity;BME280_pressure;Samples;Min_cycle;Max_cycle;Signal;HPM_P1;HPM_P2
2022/10/06 00:00:10;;;;;;;0.00;0.00;;;14.50;99.90;;;;;;4965554;28;20038;-81
2022/10/06 00:02:37;;;;;;;0.00;0.00;;;14.30;99.90;;;;;;4977957;28;20038;-80
2022/10/06 00:05:04;;;;;;;0.00;0.00;;;14.20;99.90;;;;;;4956112;28;20046;-80
2022/10/06 00:07:31;;;;;;;0.00;0.00;;;14.10;99.90;;;;;;4969997;28;20046;-81
2022/10/06 00:09:57;;;;;;;0.00;0.00;;;14.00;99.90;;;;;;4955977;28;20125;-82
2022/10/06 00:12:26;;;;;;;0.00;0.00;;;14.00;99.90;;;;;;4958930;28;20053;-81
2022/10/06 00:14:53;;;;;;;0.00;0.00;;;13.90;99.90;;;;;;4968333;28;20057;-80
2022/10/06 00:17:19;;;;;;;0.00;0.00;;;14.00;99.90;;;;;;4966275;28;20047;-80
2022/10/06 00:19:46;;;;;;;0.00;0.00;;;14.00;99.90;;;;;;4971810;28;20046;-82
2022/10/06 00:22:13;;;;;;;0.00;0.00;;;14.00;99.90;;;;;;4958389;28;20054;-81
2022/10/06 00:24:40;;;;;;;0.00;0.00;;;14.00;99.90;;;;;;4951323;28;20093;-82
2022/10/06 00:27:07;;;;;;;0.00;0.00;;;13.90;99.90;;;;;;4970903;28;20049;-82
2022/10/06 00:29:35;;;;;;;0.00;0.00;;;14.50;99.90;;;;;;4971055;28;20125;-80
2022/10/06 00:32:02;;;;;;;0.00;0.00;;;13.90;99.90;;;;;;4955636;28;20053;-81
2022/10/06 00:34:28;;;;;;;0.00;0.00;;;13.90;99.90;;;;;;4972048;28;20041;-80
2022/10/06 00:36:55;;;;;;;0.00;0.00;;;14.00;99.90;;;;;;4960816;28;20081;-81
2022/10/06 00:39:22;;;;;;;0.00;0.00;;;13.90;99.90;;;;;;4967798;28;20042;-79
2022/10/06 00:41:49;;;;;;;0.00;0.00;;;13.90;99.90;;;;;;4962498;28;20117;-81
2022/10/06 00:44:16;;;;;;;0.00;0.00;;;14.00;99.90;;;;;;4971226;28;20047;-80
2022/10/06 00:46:46;;;;;;;0.00;0.00;;;13.90;99.90;;;;;;4971619;28;20431;-81
2022/10/06 00:49:17;;;;;;;0.00;0.00;;;13.50;99.90;;;;;;4956781;28;20583;-79
2022/10/06 00:51:48;;;;;;;0.00;0.00;;;13.90;99.90;;;;;;4968450;28;20073;-81
2022/10/06 00:54:16;;;;;;;0.00;0.00;;;14.40;99.90;;;;;;4969470;28;20134;-81
2022/10/06 00:56:43;;;;;;;0.00;0.00;;;13.90;99.90;;;;;;4973453;28;20047;-81
2022/10/06 00:59:12;;;;;;;0.00;0.00;;;13.90;99.90;;;;;;4970515;28;20418;-81
2022/10/06 01:01:43;;;;;;;0.00;0.00;;;13.90;99.90;;;;;;4950336;28;20034;-81
2022/10/06 01:04:14;;;;;;;0.00;0.00;;;14.00;99.90;;;;;;4963941;28;20121;-81
2022/10/06 01:06:44;;;;;;;0.00;0.00;;;14.00;99.90;;;;;;4974008;28;20046;-82
2022/10/06 01:09:11;;;;;;;;;;;14.00;99.90;;;;;;4978936;28;20117;-82
2022/10/06 01:11:38;;;;;;;0.00;0.00;;;14.00;99.90;;;;;;4973800;28;19922;-79
2022/10/06 01:14:05;;;;;;;0.00;0.00;;;14.10;99.90;;;;;;4968060;28;20034;-81
2022/10/06 01:16:37;;;;;;;0.00;0.00;;;14.00;99.90;;;;;;4949638;28;20053;-81
2022/10/06 01:19:09;;;;;;;0.00;0.00;;;13.90;99.90;;;;;;4971557;28;20053;-80
2022/10/06 01:21:41;;;;;;;0.00;0.00;;;14.50;99.90;;;;;;4970264;28;20043;-81
2022/10/06 01:24:10;;;;;;;0.00;0.00;;;13.90;99.90;;;;;;4960139;28;20044;-81
2022/10/06 01:26:40;;;;;;;0.00;0.00;;;13.90;99.90;;;;;;4956000;28;20069;-79
2022/10/06 01:29:08;;;;;;;0.00;0.00;;;14.00;99.90;;;;;;4962476;28;20049;-81
2022/10/06 01:31:35;;;;;;;0.00;0.00;;;14.00;99.90;;;;;;4953723;28;20452;-81
2022/10/06 01:34:02;;;;;;;0.00;0.00;;;14.00;99.90;;;;;;4970640;28;20085;-80
2022/10/06 01:36:29;;;;;;;0.00;0.00;;;14.40;99.90;;;;;;4960425;28;20046;-80
2022/10/06 01:38:56;;;;;;;0.00;0.00;;;14.00;99.90;;;;;;4967319;28;20047;-80
2022/10/06 01:41:26;;;;;;;0.00;0.00;;;13.90;99.90;;;;;;4975153;28;20054;-80
2022/10/06 01:43:53;;;;;;;;;;;14.00;99.90;;;;;;4966698;28;20055;-81
2022/10/06 01:46:20;;;;;;;0.00;0.00;;;14.00;99.90;;;;;;4973416;28;19922;-81
2022/10/06 01:48:47;;;;;;;0.00;0.00;;;14.00;99.90;;;;;;4957354;28;20051;-81
2022/10/06 01:51:17;;;;;;;0.00;0.00;;;13.90;99.90;;;;;;4952445;28;20046;-80
2022/10/06 01:53:44;;;;;;;0.00;0.00;;;13.90;99.90;;;;;;4951150;28;20035;-80
2022/10/06 01:56:11;;;;;;;0.00;0.00;;;13.90;99.90;;;;;;4959717;28;20047;-81
2022/10/06 01:58:39;;;;;;;0.00;0.00;;;13.90;99.90;;;;;;4960158;28;20578;-80
2022/10/06 02:01:07;;;;;;;0.00;0.00;;;13.80;99.90;;;;;;4962881;28;20050;-80
2022/10/06 02:03:35;;;;;;;0.00;0.00;;;13.80;99.90;;;;;;4972750;28;20383;-79
2022/10/06 02:06:03;;;;;;;0.00;0.00;;;13.90;99.90;;;;;;4964896;28;20127;-81
2022/10/06 02:08:30;;;;;;;0.00;0.00;;;13.90;99.90;;;;;;4967677;28;20046;-82
2022/10/06 02:10:57;;;;;;;0.00;0.00;;;13.90;99.90;;;;;;4971991;28;20038;-80
2022/10/06 02:13:25;;;;;;;0.00;0.00;;;13.80;99.90;;;;;;4972415;28;20046;-80
2022/10/06 02:15:56;;;;;;;0.00;0.00;;;13.80;99.90;;;;;;4964796;28;20422;-80
2022/10/06 02:18:23;;;;;;;0.00;0.00;;;13.80;99.90;;;;;;4956231;28;20038;-80
2022/10/06 02:20:50;;;;;;;0.00;0.00;;;13.80;99.90;;;;;;4981743;28;20515;-80
2022/10/06 02:23:17;;;;;;;0.00;0.00;;;13.80;99.90;;;;;;4952892;28;20038;-81
2022/10/06 02:25:43;;;;;;;0.00;0.00;;;13.80;99.90;;;;;;4974092;28;20068;-80
2022/10/06 02:28:10;;;;;;;0.00;0.00;;;13.80;99.90;;;;;;4975698;28;20057;-81
2022/10/06 02:30:37;;;;;;;0.00;0.00;;;13.80;99.90;;;;;;4974015;28;20034;-81
2022/10/06 02:33:06;;;;;;;0.00;0.00;;;13.80;99.90;;;;;;4976899;28;20089;-80
2022/10/06 02:35:33;;;;;;;0.00;0.00;;;13.80;99.90;;;;;;4966005;28;20050;-80
2022/10/06 02:38:00;;;;;;;0.00;0.00;;;14.60;99.90;;;;;;4973836;28;20043;-81
2022/10/06 02:40:27;;;;;;;0.00;0.00;;;14.40;99.90;;;;;;4954568;28;20047;-80
2022/10/06 02:42:53;;;;;;;0.00;0.00;;;13.80;99.90;;;;;;4967449;28;20088;-82
2022/10/06 02:45:20;;;;;;;0.00;0.00;;;13.90;99.90;;;;;;4960277;28;20521;-79
2022/10/06 02:47:48;;;;;;;0.00;0.00;;;13.80;99.90;;;;;;4960179;28;20062;-80
2022/10/06 02:50:16;;;;;;;0.00;0.00;;;13.80;99.90;;;;;;4977101;28;20035;-80
2022/10/06 02:52:43;;;;;;;0.00;0.00;;;13.80;99.90;;;;;;4972151;28;20061;-80
2022/10/06 02:55:10;;;;;;;0.00;0.00;;;13.90;99.90;;;;;;4970666;28;20070;-80
2022/10/06 02:57:38;;;;;;;0.00;0.00;;;13.90;99.90;;;;;;4970141;28;20051;-80
2022/10/06 03:00:07;;;;;;;0.00;0.00;;;13.90;99.90;;;;;;4979362;28;20495;-80
2022/10/06 03:02:34;;;;;;;0.00;0.00;;;13.90;99.90;;;;;;4975291;28;20489;-80
2022/10/06 03:05:01;;;;;;;0.00;0.00;;;13.90;99.90;;;;;;4965165;28;20078;-80
2022/10/06 03:07:29;;;;;;;0.00;0.00;;;13.90;99.90;;;;;;4969707;28;20046;-80
2022/10/06 03:09:56;;;;;;;0.00;0.00;;;13.80;99.90;;;;;;4972888;28;20047;-82
2022/10/06 03:12:23;;;;;;;0.00;0.00;;;13.90;99.90;;;;;;4975330;28;20101;-81
2022/10/06 03:14:50;;;;;;;0.00;0.00;;;13.80;99.90;;;;;;4971028;28;20046;-81
2022/10/06 03:17:17;;;;;;;0.00;0.00;;;14.40;99.90;;;;;;4975081;28;20211;-81
2022/10/06 03:19:43;;;;;;;0.00;0.00;;;13.70;99.90;;;;;;4977744;28;20082;-80
2022/10/06 03:22:10;;;;;;;0.00;0.00;;;13.70;99.90;;;;;;4955430;28;20051;-80
2022/10/06 03:24:38;;;;;;;0.00;0.00;;;13.50;99.90;;;;;;4968379;28;20050;-80
2022/10/06 03:27:05;;;;;;;0.00;0.00;;;13.70;99.90;;;;;;4977455;28;20034;-81
2022/10/06 03:29:32;;;;;;;0.00;0.00;;;13.70;99.90;;;;;;4977017;28;20042;-81
2022/10/06 03:31:59;;;;;;;0.00;0.00;;;13.80;99.90;;;;;;4970629;28;20043;-80
2022/10/06 03:34:26;;;;;;;0.00;0.00;;;13.60;99.90;;;;;;4971492;28;20490;-81
2022/10/06 03:36:53;;;;;;;0.00;0.00;;;13.60;99.90;;;;;;4954478;28;20085;-81
2022/10/06 03:39:20;;;;;;;0.00;0.00;;;13.60;99.90;;;;;;4968997;28;20820;-80
2022/10/06 03:41:48;;;;;;;0.00;0.00;;;13.70;99.90;;;;;;4957468;28;20043;-81
2022/10/06 03:44:15;;;;;;;0.00;0.00;;;13.70;99.90;;;;;;4973656;28;20039;-80
2022/10/06 03:46:42;;;;;;;0.00;0.00;;;13.70;99.90;;;;;;4969390;28;20126;-79
2022/10/06 03:49:09;;;;;;;0.00;0.00;;;13.70;99.90;;;;;;4973194;28;20043;-80
2022/10/06 03:51:38;;;;;;;0.00;0.00;;;13.60;99.90;;;;;;4977336;28;20213;-80
2022/10/06 03:54:09;;;;;;;0.00;0.00;;;13.70;99.90;;;;;;4973243;28;20044;-82
2022/10/06 03:56:37;;;;;;;0.00;0.00;;;13.50;99.90;;;;;;4971313;28;20172;-82
2022/10/06 03:59:07;;;;;;;0.00;0.00;;;13.50;99.90;;;;;;4956084;28;20518;-80
2022/10/06 04:01:37;;;;;;;0.00;0.00;;;13.40;99.90;;;;;;4967829;28;20057;-81
2022/10/06 04:04:05;;;;;;;0.00;0.00;;;13.60;99.90;;;;;;4973430;28;20059;-80
2022/10/06 04:06:33;;;;;;;0.00;0.00;;;13.50;99.90;;;;;;4966518;28;20491;-80
2022/10/06 04:09:01;;;;;;;0.00;0.00;;;13.60;99.90;;;;;;4969334;28;20061;-83
2022/10/06 04:11:30;;;;;;;0.00;0.00;;;13.60;99.90;;;;;;4960023;28;20035;-80
2022/10/06 04:13:59;;;;;;;0.00;0.00;;;13.60;99.90;;;;;;4971113;28;20121;-81
2022/10/06 04:16:30;;;;;;;0.00;0.00;;;14.90;99.90;;;;;;4970271;28;20514;-80
2022/10/06 04:18:58;;;;;;;0.00;0.00;;;13.40;99.90;;;;;;4970989;28;20631;-81
2022/10/06 04:21:26;;;;;;;0.00;0.00;;;13.40;99.90;;;;;;4958097;28;20046;-80
2022/10/06 04:23:54;;;;;;;0.00;0.00;;;13.50;99.90;;;;;;4973074;28;20047;-80
2022/10/06 04:26:23;;;;;;;0.00;0.00;;;13.50;99.90;;;;;;4968317;28;20038;-80
2022/10/06 04:28:50;;;;;;;0.00;0.00;;;13.40;99.90;;;;;;4958938;28;20047;-81
2022/10/06 04:31:19;;;;;;;0.00;0.00;;;13.40;99.90;;;;;;4967715;28;20476;-80
2022/10/06 04:33:51;;;;;;;0.00;0.00;;;13.40;99.90;;;;;;4966633;28;20055;-82
2022/10/06 04:36:22;;;;;;;0.00;0.00;;;14.10;99.90;;;;;;4968319;28;20410;-79
2022/10/06 04:38:50;;;;;;;0.00;0.00;;;13.30;99.90;;;;;;4971656;28;20076;-81
2022/10/06 04:41:18;;;;;;;0.00;0.00;;;14.10;99.90;;;;;;4976433;28;20069;-81
2022/10/06 04:43:45;;;;;;;0.03;0.03;;;13.20;99.90;;;;;;4975287;28;20050;-81
2022/10/06 04:46:13;;;;;;;0.20;0.00;;;13.80;99.90;;;;;;4972894;28;20122;-81
2022/10/06 04:49:02;;;;;;;0.00;0.00;;;13.10;99.90;;;;;;4955689;28;20542;-79
2022/10/06 04:51:29;;;;;;;0.00;0.00;;;13.20;99.90;;;;;;4972332;28;20045;-82
2022/10/06 04:53:55;;;;;;;0.00;0.00;;;13.70;99.90;;;;;;4970282;28;20297;-82
2022/10/06 04:56:24;;;;;;;0.00;0.00;;;13.00;99.90;;;;;;4973938;28;20046;-80
2022/10/06 04:58:52;;;;;;;0.00;0.00;;;13.00;99.90;;;;;;4954333;28;20137;-80
2022/10/06 05:01:20;;;;;;;0.00;0.00;;;13.00;99.90;;;;;;4964560;28;20519;-79
2022/10/06 05:03:49;;;;;;;0.00;0.00;;;13.00;99.90;;;;;;4966983;28;20518;-81
2022/10/06 05:06:19;;;;;;;0.00;0.00;;;12.80;99.90;;;;;;4970078;28;20117;-80
2022/10/06 05:08:47;;;;;;;0.00;0.00;;;14.20;99.90;;;;;;4972476;28;20204;-81
2022/10/06 05:11:14;;;;;;;0.00;0.00;;;12.70;99.90;;;;;;4970308;28;20563;-81
2022/10/06 05:13:45;;;;;;;0.00;0.00;;;12.70;99.90;;;;;;4966179;28;20057;-79
2022/10/06 05:16:14;;;;;;;0.00;0.00;;;12.60;99.90;;;;;;4964209;28;20130;-81
2022/10/06 05:18:42;;;;;;;0.00;0.00;;;12.60;99.90;;;;;;4960808;28;20039;-79
2022/10/06 05:21:12;;;;;;;0.00;0.00;;;12.60;99.90;;;;;;4979051;28;20068;-80
2022/10/06 05:23:41;;;;;;;;;;;12.60;99.90;;;;;;4962237;28;20399;-81
2022/10/06 05:26:10;;;;;;;0.00;0.00;;;12.50;99.90;;;;;;4972452;28;19921;-80
2022/10/06 05:28:36;;;;;;;0.00;0.00;;;12.50;99.90;;;;;;4977958;28;20049;-81
2022/10/06 05:31:06;;;;;;;0.00;0.00;;;12.40;99.90;;;;;;4959710;28;20053;-80
2022/10/06 05:33:34;;;;;;;0.10;0.10;;;12.40;99.90;;;;;;4974583;28;20047;-81
2022/10/06 05:36:04;;;;;;;0.00;0.00;;;12.40;99.90;;;;;;4966348;28;20671;-81
2022/10/06 05:38:32;;;;;;;0.10;0.10;;;12.30;99.90;;;;;;4960437;28;20554;-81
2022/10/06 05:41:04;;;;;;;0.00;0.00;;;12.30;99.90;;;;;;4977331;28;20129;-82
2022/10/06 05:43:32;;;;;;;0.00;0.00;;;12.30;99.90;;;;;;4978951;28;20053;-80
2022/10/06 05:46:01;;;;;;;0.00;0.00;;;12.30;99.90;;;;;;4956556;28;20396;-81
2022/10/06 05:48:29;;;;;;;0.00;0.00;;;12.20;99.90;;;;;;4970691;28;20051;-81
2022/10/06 05:50:57;;;;;;;0.00;0.00;;;12.20;99.90;;;;;;4969131;28;20213;-81
2022/10/06 05:53:24;;;;;;;0.00;0.00;;;12.20;99.90;;;;;;4954165;28;20062;-82
2022/10/06 05:55:51;;;;;;;0.00;0.00;;;12.20;99.90;;;;;;4982513;28;20038;-81
2022/10/06 05:58:19;;;;;;;0.00;0.00;;;12.20;99.90;;;;;;4980290;28;20046;-81
2022/10/06 06:00:46;;;;;;;0.00;0.00;;;12.30;99.90;;;;;;4970237;28;20054;-82
2022/10/06 06:03:12;;;;;;;0.00;0.00;;;12.30;99.90;;;;;;4973603;28;20105;-81
2022/10/06 06:05:40;;;;;;;0.00;0.00;;;12.30;99.90;;;;;;4969618;28;20495;-80
2022/10/06 06:08:09;;;;;;;0.00;0.00;;;12.30;99.90;;;;;;4978107;28;20031;-80
2022/10/06 06:10:36;;;;;;;0.00;0.00;;;12.30;99.90;;;;;;4968901;28;20486;-81
2022/10/06 06:13:03;;;;;;;0.00;0.00;;;12.30;99.90;;;;;;4982007;28;20661;-81
2022/10/06 06:18:16;;;;;;;0.00;0.00;;;12.20;99.90;;;;;;4972299;28;20078;-81
2022/10/06 06:20:43;;;;;;;0.00;0.00;;;12.20;99.90;;;;;;4967061;28;20081;-80
2022/10/06 06:23:10;;;;;;;0.00;0.00;;;12.10;99.90;;;;;;4979942;28;20072;-81
2022/10/06 06:25:36;;;;;;;0.00;0.00;;;12.10;99.90;;;;;;4961247;28;20077;-81
2022/10/06 06:28:04;;;;;;;0.00;0.00;;;12.20;99.90;;;;;;4973179;28;20038;-81
2022/10/06 06:30:33;;;;;;;0.00;0.00;;;12.20;99.90;;;;;;4971485;28;20058;-80
2022/10/06 06:33:00;;;;;;;0.00;0.00;;;12.20;99.90;;;;;;4962791;28;20069;-79
2022/10/06 06:35:27;;;;;;;0.00;0.00;;;12.10;99.90;;;;;;4963598;28;20038;-81
2022/10/06 06:37:54;;;;;;;0.00;0.00;;;12.10;99.90;;;;;;4979941;28;20041;-81
2022/10/06 06:40:20;;;;;;;0.00;0.00;;;12.10;99.90;;;;;;4966194;28;20047;-81
2022/10/06 06:42:48;;;;;;;0.00;0.00;;;12.10;99.90;;;;;;4968389;28;20050;-81
2022/10/06 06:45:20;;;;;;;0.00;0.00;;;;;;;;;;4979442;28;20464;-82
2022/10/06 06:47:49;;;;;;;0.00;0.00;;;12.10;99.90;;;;;;4973846;28;20053;-80
2022/10/06 06:50:17;;;;;;;0.00;0.00;;;12.10;99.90;;;;;;4976428;28;20061;-79
2022/10/06 06:52:44;;;;;;;0.00;0.00;;;12.10;99.90;;;;;;4978605;28;20486;-81
2022/10/06 06:55:11;;;;;;;0.00;0.00;;;12.10;99.90;;;;;;4959729;28;20047;-80
2022/10/06 06:57:37;;;;;;;0.00;0.00;;;12.10;99.90;;;;;;4965010;28;20093;-80
2022/10/06 07:00:06;;;;;;;0.00;0.00;;;12.20;99.90;;;;;;4975477;28;20078;-80
2022/10/06 07:02:33;;;;;;;0.00;0.00;;;12.20;99.90;;;;;;4968436;28;20047;-81
2022/10/06 07:05:04;;;;;;;0.00;0.00;;;12.30;99.90;;;;;;4969756;28;20301;-81
2022/10/06 07:07:34;;;;;;;0.00;0.00;;;;;;;;;;4970995;28;20043;-80
2022/10/06 07:10:02;;;;;;;0.00;0.00;;;12.30;99.90;;;;;;4974774;28;20051;-80
2022/10/06 07:12:29;;;;;;;0.00;0.00;;;;;;;;;;4972127;28;20050;-80
2022/10/06 07:26:06;;;;;;;0.00;0.00;;;12.30;99.90;;;;;;4978150;28;20506;-81
2022/10/06 07:28:33;;;;;;;0.00;0.00;;;12.30;99.90;;;;;;4981499;28;20059;-81
2022/10/06 07:31:00;;;;;;;0.00;0.00;;;12.60;99.90;;;;;;4974186;28;20094;-81
2022/10/06 07:33:28;;;;;;;0.00;0.00;;;12.30;99.90;;;;;;4966197;28;20053;-81
2022/10/06 07:35:56;;;;;;;0.03;0.03;;;12.30;99.90;;;;;;4970263;28;20570;-80
2022/10/06 07:38:26;;;;;;;0.00;0.00;;;12.40;99.90;;;;;;4972130;28;20077;-80
2022/10/06 07:40:53;;;;;;;0.00;0.00;;;13.80;99.90;;;;;;4976997;28;20043;-81
2022/10/06 07:43:40;;;;;;;0.00;0.00;;;12.50;99.90;;;;;;4974642;28;20518;-81
2022/10/06 07:46:09;;;;;;;0.00;0.00;;;12.60;99.90;;;;;;4953516;28;20327;-81
2022/10/06 07:48:37;;;;;;;0.00;0.00;;;12.50;99.90;;;;;;4974170;28;20074;-80
2022/10/06 07:51:15;;;;;;;0.00;0.00;;;14.60;99.90;;;;;;4972437;28;20046;-79
2022/10/06 07:53:49;;;;;;;0.00;0.00;;;;;;;;;;4957237;28;20046;-81
2022/10/06 07:56:19;;;;;;;0.00;0.00;;;;;;;;;;4970382;28;20049;-80
2022/10/06 07:58:47;;;;;;;0.00;0.00;;;;;;;;;;4964513;28;20051;-80
2022/10/06 08:01:16;;;;;;;0.00;0.00;;;12.60;99.90;;;;;;4967611;28;20053;-81
2022/10/06 08:03:47;;;;;;;0.00;0.00;;;12.70;99.90;;;;;;4949270;28;20148;-82
2022/10/06 08:06:17;;;;;;;0.00;0.00;;;12.70;99.90;;;;;;4951829;28;20715;-82
2022/10/06 08:08:46;;;;;;;0.00;0.00;;;13.60;99.90;;;;;;4968375;28;20047;-79
2022/10/06 08:11:19;;;;;;;0.00;0.00;;;;;;;;;;4972419;28;20047;-80
2022/10/06 08:13:47;;;;;;;0.00;0.00;;;;;;;;;;4968599;28;20162;-80
2022/10/06 08:16:17;;;;;;;0.00;0.00;;;12.90;99.90;;;;;;4963422;28;20046;-80
2022/10/06 08:18:48;;;;;;;0.00;0.00;;;13.10;99.90;;;;;;4970246;28;20057;-80
2022/10/06 08:21:19;;;;;;;0.00;0.00;;;11.30;99.90;;;;;;4973191;28;20078;-80
2022/10/06 08:23:48;;;;;;;0.00;0.00;;;13.40;99.90;;;;;;4956290;28;20042;-81
2022/10/06 08:26:17;;;;;;;0.00;0.00;;;13.00;99.90;;;;;;4967413;28;20519;-81
2022/10/06 08:28:45;;;;;;;0.00;0.00;;;13.00;99.90;;;;;;4974026;28;20073;-79
2022/10/06 08:31:14;;;;;;;0.00;0.00;;;;;;;;;;4956340;28;20130;-80
2022/10/06 08:33:42;;;;;;;0.00;0.00;;;13.00;99.90;;;;;;4972396;28;20054;-81
2022/10/06 08:36:13;;;;;;;0.00;0.00;;;13.10;99.90;;;;;;4969857;28;20118;-80
2022/10/06 08:38:42;;;;;;;0.00;0.00;;;13.00;99.90;;;;;;4954975;28;20070;-81
2022/10/06 08:41:21;;;;;;;0.00;0.00;;;13.10;99.90;;;;;;4966674;28;20042;-79
2022/10/06 08:43:55;;;;;;;0.00;0.00;;;13.10;99.90;;;;;;4964940;28;20074;-81
2022/10/06 08:46:27;;;;;;;0.00;0.00;;;13.20;99.90;;;;;;4971624;28;20035;-80
2022/10/06 08:48:56;;;;;;;0.00;0.00;;;13.90;99.90;;;;;;4969604;28;20070;-81
2022/10/06 08:51:34;;;;;;;0.00;0.00;;;13.40;99.90;;;;;;4962975;28;20038;-80
2022/10/06 08:54:10;;;;;;;0.00;0.00;;;13.40;99.90;;;;;;4965303;28;20533;-80
2022/10/06 08:56:57;;;;;;;0.00;0.00;;;13.40;99.90;;;;;;4974237;28;20035;-80
2022/10/06 08:59:24;;;;;;;0.00;0.00;;;13.60;99.90;;;;;;4968270;28;20473;-82
2022/10/06 09:01:53;;;;;;;0.00;0.00;;;13.60;99.90;;;;;;4977969;28;20053;-80
2022/10/06 09:04:27;;;;;;;0.00;0.00;;;13.60;99.90;;;;;;4974749;28;20053;-80
2022/10/06 09:07:02;;;;;;;0.00;0.00;;;13.80;99.90;;;;;;4960698;28;20312;-79
2022/10/06 09:09:52;;;;;;;0.00;0.00;;;13.70;99.90;;;;;;4970572;28;20042;-80
2022/10/06 09:12:29;;;;;;;0.00;0.00;;;13.80;99.90;;;;;;4968751;28;20059;-80
2022/10/06 09:15:05;;;;;;;0.00;0.00;;;13.70;99.90;;;;;;4965423;28;20173;-79
2022/10/06 09:17:36;;;;;;;0.00;0.00;;;13.70;99.90;;;;;;4968083;28;20102;-81
2022/10/06 09:20:19;;;;;;;0.00;0.00;;;13.80;99.90;;;;;;4962899;28;20057;-80
2022/10/06 09:22:50;;;;;;;0.00;0.00;;;15.20;99.90;;;;;;4957293;28;20137;-82
2022/10/06 09:25:27;;;;;;;0.00;0.00;;;14.00;99.90;;;;;;4954684;28;20066;-82
2022/10/06 09:27:56;;;;;;;0.00;0.00;;;13.90;99.90;;;;;;4974082;28;20446;-80
2022/10/06 09:30:23;;;;;;;0.00;0.00;;;;;;;;;;4963399;28;20043;-81
2022/10/06 09:32:58;;;;;;;0.00;0.00;;;14.00;99.90;;;;;;4968918;28;20130;-80
2022/10/06 09:35:27;;;;;;;0.00;0.00;;;14.10;99.90;;;;;;4968436;28;20333;-80
2022/10/06 09:37:56;;;;;;;0.00;0.00;;;14.30;99.90;;;;;;4972714;28;20491;-80
2022/10/06 09:40:37;;;;;;;0.00;0.00;;;14.20;99.90;;;;;;4967011;28;20684;-81
2022/10/06 09:43:15;;;;;;;0.00;0.00;;;14.10;99.90;;;;;;4942413;28;20134;-82
2022/10/06 09:45:42;;;;;;;0.00;0.00;;;14.30;99.90;;;;;;4955467;28;20051;-81
2022/10/06 09:48:19;;;;;;;0.00;0.00;;;14.30;99.90;;;;;;4967247;28;20047;-81
2022/10/06 09:51:07;;;;;;;0.00;0.00;;;14.50;99.90;;;;;;4967163;28;20047;-78
2022/10/06 09:53:34;;;;;;;0.00;0.00;;;14.40;99.90;;;;;;4955469;28;20507;-81
2022/10/06 09:56:12;;;;;;;0.00;0.00;;;15.70;99.90;;;;;;4959808;28;20051;-79
2022/10/06 09:58:38;;;;;;;0.00;0.00;;;14.40;99.90;;;;;;4959370;28;20407;-80
2022/10/06 10:01:08;;;;;;;0.00;0.00;;;14.50;99.90;;;;;;4952653;28;20126;-80
2022/10/06 10:03:50;;;;;;;0.00;0.00;;;14.50;99.90;;;;;;4956210;28;20047;-80
2022/10/06 10:06:35;;;;;;;0.00;0.00;;;15.50;99.90;;;;;;4966283;28;20034;-80
2022/10/06 10:09:24;;;;;;;0.00;0.00;;;14.50;99.90;;;;;;4969805;28;20042;-82
2022/10/06 10:12:29;;;;;;;0.00;0.00;;;14.30;99.90;;;;;;4969078;28;20525;-80
2022/10/06 10:15:00;;;;;;;0.00;0.00;;;14.30;99.90;;;;;;4963098;28;20039;-80
2022/10/06 10:17:38;;;;;;;0.00;0.00;;;14.40;99.90;;;;;;4958381;28;20063;-80
2022/10/06 10:20:22;;;;;;;0.00;0.00;;;14.30;99.90;;;;;;4971948;28;20159;-81
2022/10/06 10:22:49;;;;;;;0.00;0.00;;;14.30;99.90;;;;;;4963856;28;20071;-80
2022/10/06 10:25:32;;;;;;;0.00;0.00;;;14.40;99.90;;;;;;4971421;28;20418;-80
2022/10/06 10:28:07;;;;;;;0.00;0.00;;;14.50;99.90;;;;;;4976118;28;21094;-81
2022/10/06 10:30:45;;;;;;;0.00;0.00;;;14.50;99.90;;;;;;4972124;28;20046;-81
2022/10/06 10:33:17;;;;;;;0.00;0.00;;;14.60;99.90;;;;;;4978924;28;20050;-78
2022/10/06 10:35:49;;;;;;;0.00;0.00;;;14.70;99.90;;;;;;4974315;28;20122;-83
2022/10/06 10:38:19;;;;;;;0.00;0.00;;;14.90;99.90;;;;;;4970593;28;20038;-81
2022/10/06 10:40:49;;;;;;;0.00;0.00;;;14.90;99.90;;;;;;4967959;28;20047;-82
2022/10/06 10:43:22;;;;;;;;;;;14.90;99.90;;;;;;4972624;28;20121;-81
2022/10/06 10:45:53;;;;;;;0.00;0.00;;;14.80;99.90;;;;;;4973578;28;19921;-82
2022/10/06 10:48:26;;;;;;;0.00;0.00;;;14.60;99.90;;;;;;4970555;28;20051;-81
2022/10/06 10:51:00;;;;;;;0.00;0.00;;;14.70;99.90;;;;;;4972441;28;20037;-81
2022/10/06 10:53:36;;;;;;;0.00;0.00;;;14.80;99.90;;;;;;4960147;28;20050;-81
2022/10/06 10:56:11;;;;;;;0.00;0.00;;;14.90;99.90;;;;;;4967768;28;20050;-81
2022/10/06 10:58:41;;;;;;;0.00;0.00;;;15.00;99.90;;;;;;4973374;28;20049;-83
2022/10/06 11:01:19;;;;;;;0.00;0.00;;;15.10;99.90;;;;;;4963267;28;20046;-81
2022/10/06 11:03:55;;;;;;;0.00;0.00;;;15.30;99.90;;;;;;4969185;28;20073;-80
2022/10/06 11:06:48;;;;;;;0.00;0.00;;;15.40;99.90;;;;;;4965656;28;20039;-81
2022/10/06 11:09:17;;;;;;;0.00;0.00;;;15.40;99.90;;;;;;4947902;28;20491;-81
2022/10/06 11:11:57;;;;;;;0.00;0.00;;;15.50;99.90;;;;;;4964137;28;20045;-81
2022/10/06 11:14:42;;;;;;;0.00;0.00;;;15.40;99.90;;;;;;4979235;28;20522;-81
2022/10/06 11:17:17;;;;;;;0.00;0.00;;;15.60;99.90;;;;;;4982272;28;20064;-81
2022/10/06 11:19:53;;;;;;;0.00;0.00;;;15.40;99.90;;;;;;4966999;28;20570;-81
2022/10/06 11:22:29;;;;;;;0.00;0.00;;;16.40;99.90;;;;;;4973418;28;20121;-80
2022/10/06 11:25:12;;;;;;;0.00;0.00;;;15.40;99.80;;;;;;4974261;28;20049;-80
2022/10/06 11:27:46;;;;;;;0.00;0.00;;;15.30;99.60;;;;;;4977984;28;20141;-81
2022/10/06 11:30:18;;;;;;;0.00;0.00;;;15.30;99.90;;;;;;4972510;28;20046;-81
2022/10/06 11:32:54;;;;;;;0.08;0.08;;;15.30;99.90;;;;;;4975007;28;20062;-81
2022/10/06 11:35:22;;;;;;;0.00;0.00;;;16.10;99.90;;;;;;4955749;28;20073;-80
2022/10/06 11:37:56;;;;;;;0.00;0.00;;;15.20;99.90;;;;;;4975725;28;20095;-81
2022/10/06 11:40:40;;;;;;;0.00;0.00;;;15.20;99.90;;;;;;4978860;28;20475;-81
2022/10/06 11:43:15;;;;;;;0.00;0.00;;;15.40;99.90;;;;;;4968506;28;20043;-81
2022/10/06 11:45:53;;;;;;;0.00;0.00;;;15.50;99.90;;;;;;4954071;28;20066;-78
2022/10/06 11:48:25;;;;;;;0.00;0.00;;;17.10;99.90;;;;;;4949931;28;20086;-81
2022/10/06 11:50:54;;;;;;;0.00;0.00;;;16.40;99.90;;;;;;4961458;28;20050;-81
2022/10/06 11:53:36;;;;;;;0.00;0.00;;;15.70;99.90;;;;;;4973608;28;20117;-81
2022/10/06 11:56:22;;;;;;;0.00;0.00;;;16.50;99.90;;;;;;4975271;28;20066;-81
2022/10/06 11:59:09;;;;;;;0.00;0.00;;;15.90;99.90;;;;;;4965102;28;20052;-80
2022/10/06 12:01:56;;;;;;;0.00;0.00;;;16.00;99.30;;;;;;4977868;28;20039;-81
2022/10/06 12:04:25;;;;;;;0.00;0.00;;;16.10;99.90;;;;;;4978385;28;20042;-81
2022/10/06 12:07:00;;;;;;;0.00;0.00;;;16.20;99.80;;;;;;4970869;28;20046;-81
2022/10/06 12:09:31;;;;;;;0.00;0.00;;;16.30;99.40;;;;;;4958216;28;20049;-81
2022/10/06 12:11:59;;;;;;;0.00;0.00;;;16.30;99.10;;;;;;4969575;28;20043;-79
2022/10/06 12:14:38;;;;;;;0.00;0.00;;;16.30;99.70;;;;;;4970745;28;20046;-81
2022/10/06 12:17:32;;;;;;;0.00;0.00;;;16.30;98.70;;;;;;4968646;28;20038;-81
2022/10/06 12:20:10;;;;;;;0.00;0.00;;;16.30;98.10;;;;;;4945943;28;20143;-80
2022/10/06 12:22:43;;;;;;;0.00;0.00;;;16.20;98.70;;;;;;4966259;28;20137;-81
2022/10/06 12:25:19;;;;;;;0.00;0.00;;;16.10;96.90;;;;;;4964074;28;20518;-81
2022/10/06 12:28:09;;;;;;;0.00;0.00;;;15.70;97.20;;;;;;4964544;28;20042;-81
2022/10/06 12:30:54;;;;;;;0.00;0.00;;;15.90;97.90;;;;;;4978196;28;20387;-81
2022/10/06 12:33:35;;;;;;;0.00;0.00;;;16.10;98.30;;;;;;4973662;28;20042;-81
2022/10/06 12:36:02;;;;;;;;;;;16.00;98.40;;;;;;4969938;28;20043;-83
2022/10/06 12:38:43;;;;;;;0.00;0.00;;;15.90;97.50;;;;;;4961640;28;19926;-81
2022/10/06 12:41:12;;;;;;;0.00;0.00;;;16.00;98.30;;;;;;4965877;28;20050;-81
2022/10/06 12:43:54;;;;;;;0.00;0.00;;;16.00;98.80;;;;;;4968441;28;20133;-80
2022/10/06 12:46:28;;;;;;;0.00;0.00;;;16.00;98.60;;;;;;4973222;28;20126;-83
2022/10/06 12:49:06;;;;;;;0.00;0.00;;;16.00;99.40;;;;;;4972474;28;20130;-81
2022/10/06 12:51:35;;;;;;;0.00;0.00;;;16.20;98.00;;;;;;4959227;28;20070;-80
2022/10/06 12:54:10;;;;;;;0.00;0.00;;;16.10;98.60;;;;;;4967547;28;20082;-81
2022/10/06 12:56:39;;;;;;;0.00;0.00;;;16.10;98.10;;;;;;4969586;28;20305;-81
2022/10/06 12:59:20;;;;;;;0.00;0.00;;;16.10;97.90;;;;;;4956008;28;20152;-80
2022/10/06 13:01:49;;;;;;;0.00;0.00;;;16.10;97.20;;;;;;4952395;28;20348;-82
2022/10/06 13:04:33;;;;;;;0.00;0.00;;;16.20;97.90;;;;;;4967631;28;20519;-81
2022/10/06 13:07:08;;;;;;;0.00;0.00;;;16.10;99.30;;;;;;4973584;28;20066;-81
2022/10/06 13:09:35;;;;;;;0.00;0.00;;;16.10;98.60;;;;;;4964553;28;20059;-79
2022/10/06 13:12:35;;;;;;;0.00;0.00;;;16.10;97.90;;;;;;4971721;28;20516;-81
2022/10/06 13:15:18;;;;;;;0.00;0.00;;;16.10;97.80;;;;;;4938823;28;20649;-80
2022/10/06 13:17:49;;;;;;;0.00;0.00;;;16.20;97.70;;;;;;4966361;28;20564;-81
2022/10/06 13:20:35;;;;;;;0.00;0.00;;;17.30;98.90;;;;;;4973350;28;20082;-81
2022/10/06 13:23:05;;;;;;;0.00;0.00;;;16.10;98.00;;;;;;4971770;28;20054;-81